Time,TemperatureF,DewpointF,PressureIn,WindDirection,WindDirectionDegrees,WindSpeedMPH,WindSpeedGustMPH,Humidity,HourlyPrecipIn,Conditions,Clouds,dailyrainin,SoftwareType,DateUTC
2013-01-03 00:00:00,64.8,63.7,30.07,SW,221,0.0,0.0,96,0.00,,,0.00,meteohub,2013-01-03 05:00:00,
2013-01-03 00:02:00,64.8,63.7,30.07,SW,221,0.0,0.0,96,0.00,,,0.00,meteohub,2013-01-03 05:02:00,
2013-01-03 00:03:00,64.8,63.7,30.07,SW,221,0.0,0.0,96,0.00,,,0.00,meteohub,2013-01-03 05:03:00,
2013-01-03 00:06:00,64.9,63.9,30.07,SW,221,0.0,0.0,96,0.00,,,0.00,meteohub,2013-01-03 05:06:00,
2013-01-03 00:11:00,64.9,64.0,30.07,SW,221,0.0,0.0,97,0.00,,,0.00,meteohub,2013-01-03 05:11:00,
2013-01-03 00:16:00,64.9,64.0,30.06,SW,221,0.0,0.0,97,0.00,,,0.00,meteohub,2013-01-03 05:16:00,
2013-01-03 00:21:00,65.1,64.2,30.07,SW,221,0.0,0.0,97,0.00,,,0.00,meteohub,2013-01-03 05:21:00,
2013-01-03 00:26:00,65.3,64.4,30.06,SW,221,0.0,0.0,97,0.00,,,0.00,meteohub,2013-01-03 05:26:00,
2013-01-03 00:31:00,65.5,64.6,30.06,SW,221,0.0,0.0,97,0.00,,,0.00,meteohub,2013-01-03 05:31:00,
2013-01-03 00:36:00,65.5,64.6,30.06,SW,221,0.0,0.0,97,0.00,,,0.00,meteohub,2013-01-03 05:36:00,
2013-01-03 00:42:00,65.5,64.6,30.06,SW,221,0.0,0.0,97,0.00,,,0.00,meteohub,2013-01-03 05:42:00,
2013-01-03 00:47:00,65.5,64.6,30.06,SW,221,0.0,0.0,97,0.00,,,0.00,meteohub,2013-01-03 05:47:00,
2013-01-03 00:52:00,65.5,64.6,30.06,SW,221,0.0,0.0,97,0.00,,,0.00,meteohub,2013-01-03 05:52:00,
2013-01-03 00:57:00,65.5,64.6,30.06,SW,221,0.0,0.0,97,0.00,,,0.00,meteohub,2013-01-03 05:57:00,
2013-01-03 01:02:00,65.5,64.6,30.06,SW,221,0.0,0.0,97,0.00,,,0.00,meteohub,2013-01-03 06:02:00,
2013-01-03 01:07:00,65.7,64.8,30.06,SW,221,1.0,0.0,97,0.00,,,0.00,meteohub,2013-01-03 06:07:00,
2013-01-03 01:12:00,65.5,64.6,30.06,SW,221,1.0,3.0,97,0.00,,,0.00,meteohub,2013-01-03 06:12:00,
2013-01-03 01:17:00,65.1,64.2,30.06,SW,221,2.0,3.0,97,0.00,,,0.00,meteohub,2013-01-03 06:17:00,
2013-01-03 01:22:00,64.9,64.0,30.06,SW,221,0.0,4.0,97,0.00,,,0.00,meteohub,2013-01-03 06:22:00,
2013-01-03 01:27:00,64.9,64.0,30.06,SW,221,1.0,4.0,97,0.00,,,0.00,meteohub,2013-01-03 06:27:00,
2013-01-03 01:32:00,64.9,64.0,30.06,SW,220,1.0,4.0,97,0.00,,,0.00,meteohub,2013-01-03 06:32:00,
2013-01-03 01:37:00,64.9,64.0,30.06,SW,220,0.0,3.0,97,0.00,,,0.00,meteohub,2013-01-03 06:37:00,
2013-01-03 01:42:00,64.9,64.0,30.06,SW,220,0.0,3.0,97,0.00,,,0.00,meteohub,2013-01-03 06:42:00,
2013-01-03 01:47:00,65.3,64.4,30.06,SW,221,1.0,3.0,97,0.00,,,0.00,meteohub,2013-01-03 06:47:00,
2013-01-03 01:52:00,65.5,64.6,30.06,SW,220,0.0,2.0,97,0.00,,,0.00,meteohub,2013-01-03 06:52:00,
2013-01-03 01:57:00,65.5,64.6,30.06,SW,221,0.0,2.0,97,0.00,,,0.00,meteohub,2013-01-03 06:57:00,
2013-01-03 02:02:00,65.5,64.6,30.06,SW,221,0.0,2.0,97,0.00,,,0.00,meteohub,2013-01-03 07:02:00,
2013-01-03 02:07:00,65.5,64.6,30.06,SW,221,0.0,0.0,97,0.00,,,0.00,meteohub,2013-01-03 07:07:00,
2013-01-03 02:12:00,65.5,64.6,30.06,SW,221,0.0,0.0,97,0.00,,,0.00,meteohub,2013-01-03 07:12:00,
2013-01-03 02:17:00,65.7,64.8,30.05,SW,220,0.0,0.0,97,0.00,,,0.00,meteohub,2013-01-03 07:17:00,
2013-01-03 02:22:00,65.5,64.6,30.05,SW,221,0.0,0.0,97,0.00,,,0.00,meteohub,2013-01-03 07:22:00,
2013-01-03 02:27:00,65.5,64.6,30.05,SW,220,0.0,0.0,97,0.00,,,0.00,meteohub,2013-01-03 07:27:00,
2013-01-03 02:32:00,65.5,64.6,30.05,SW,221,0.0,0.0,97,0.00,,,0.00,meteohub,2013-01-03 07:32:00,
2013-01-03 02:37:00,65.5,64.6,30.05,SW,221,3.0,0.0,97,0.00,,,0.00,meteohub,2013-01-03 07:37:00,
2013-01-03 02:42:00,65.7,64.8,30.05,SW,221,0.0,3.0,97,0.00,,,0.00,meteohub,2013-01-03 07:42:00,
2013-01-03 02:48:00,65.8,64.9,30.05,SW,220,0.0,3.0,97,0.00,,,0.00,meteohub,2013-01-03 07:48:00,
2013-01-03 02:53:00,66.0,65.5,30.05,SW,220,0.0,3.0,98,0.00,,,0.00,meteohub,2013-01-03 07:53:00,
2013-01-03 02:58:00,66.0,65.1,30.05,SW,220,1.0,3.0,97,0.00,,,0.00,meteohub,2013-01-03 07:58:00,
2013-01-03 03:03:00,66.0,65.1,30.05,SW,219,1.0,4.0,97,0.00,,,0.00,meteohub,2013-01-03 08:03:00,
2013-01-03 03:08:00,65.8,64.9,30.04,SW,216,3.0,4.0,97,0.00,,,0.00,meteohub,2013-01-03 08:08:00,
2013-01-03 03:13:00,65.7,64.8,30.05,SW,215,3.0,4.0,97,0.00,,,0.00,meteohub,2013-01-03 08:13:00,
2013-01-03 03:19:00,65.5,64.6,30.05,SW,214,2.0,4.0,97,0.00,,,0.00,meteohub,2013-01-03 08:19:00,
2013-01-03 03:24:00,65.3,64.4,30.04,SE,132,1.0,4.0,97,0.00,,,0.00,meteohub,2013-01-03 08:24:00,
2013-01-03 03:29:00,65.1,64.2,30.04,ESE,107,4.0,5.0,97,0.00,,,0.00,meteohub,2013-01-03 08:29:00,
2013-01-03 03:34:00,65.3,64.4,30.04,ESE,107,2.0,5.0,97,0.00,,,0.00,meteohub,2013-01-03 08:34:00,
2013-01-03 03:39:00,65.3,64.4,30.04,ESE,107,3.0,5.0,97,0.00,,,0.00,meteohub,2013-01-03 08:39:00,
2013-01-03 03:44:00,65.3,64.4,30.04,ESE,107,4.0,5.0,97,0.00,,,0.00,meteohub,2013-01-03 08:44:00,
2013-01-03 03:49:00,65.3,64.4,30.04,ESE,107,4.0,7.0,97,0.00,,,0.00,meteohub,2013-01-03 08:49:00,
2013-01-03 03:54:00,65.3,64.4,30.04,ESE,107,4.0,7.0,97,0.00,,,0.00,meteohub,2013-01-03 08:54:00,
2013-01-03 04:00:00,65.5,64.9,30.04,ESE,107,4.0,7.0,98,0.00,,,0.00,meteohub,2013-01-03 09:00:00,
2013-01-03 04:05:00,65.3,64.4,30.04,ESE,107,2.0,7.0,97,0.00,,,0.00,meteohub,2013-01-03 09:05:00,
2013-01-03 04:10:00,65.1,64.2,30.04,East,96,3.0,8.0,97,0.00,,,0.00,meteohub,2013-01-03 09:10:00,
2013-01-03 04:15:00,65.1,64.2,30.04,East,94,3.0,8.0,97,0.00,,,0.00,meteohub,2013-01-03 09:15:00,
2013-01-03 04:21:00,65.1,64.2,30.04,East,94,6.0,9.0,97,0.00,,,0.00,meteohub,2013-01-03 09:21:00,
2013-01-03 04:26:00,65.1,64.2,30.04,East,91,0.0,9.0,97,0.00,,,0.00,meteohub,2013-01-03 09:26:00,
2013-01-03 04:31:00,65.3,64.8,30.04,East,85,3.0,9.0,98,0.00,,,0.00,meteohub,2013-01-03 09:31:00,
2013-01-03 04:37:00,65.1,64.2,30.04,East,85,5.0,9.0,97,0.00,,,0.00,meteohub,2013-01-03 09:37:00,
2013-01-03 04:42:00,65.1,64.2,30.04,East,84,1.0,8.0,97,0.00,,,0.00,meteohub,2013-01-03 09:42:00,
2013-01-03 04:47:00,65.1,64.6,30.04,East,84,3.0,8.0,98,0.00,,,0.00,meteohub,2013-01-03 09:47:00,
2013-01-03 04:52:00,65.1,64.2,30.04,East,84,0.0,7.0,97,0.00,,,0.00,meteohub,2013-01-03 09:52:00,
2013-01-03 04:57:00,65.3,64.8,30.05,East,84,3.0,7.0,98,0.00,,,0.00,meteohub,2013-01-03 09:57:00,
2013-01-03 05:02:00,65.5,64.9,30.05,East,84,0.0,7.0,98,0.00,,,0.00,meteohub,2013-01-03 10:02:00,
2013-01-03 05:07:00,65.5,64.9,30.04,East,84,2.0,5.0,98,0.00,,,0.00,meteohub,2013-01-03 10:07:00,
2013-01-03 05:13:00,65.1,64.2,30.04,East,84,0.0,6.0,97,0.00,,,0.00,meteohub,2013-01-03 10:13:00,
2013-01-03 05:18:00,65.3,64.8,30.05,East,84,0.0,6.0,98,0.00,,,0.00,meteohub,2013-01-03 10:18:00,
2013-01-03 05:23:00,65.1,64.6,30.05,East,84,0.0,6.0,98,0.00,,,0.00,meteohub,2013-01-03 10:23:00,
2013-01-03 05:28:00,64.8,64.2,30.05,East,84,0.0,5.0,98,0.00,,,0.00,meteohub,2013-01-03 10:28:00,
2013-01-03 05:33:00,64.8,64.2,30.05,East,84,0.0,5.0,98,0.00,,,0.00,meteohub,2013-01-03 10:33:00,
2013-01-03 05:38:00,64.8,64.2,30.05,East,84,0.0,3.0,98,0.00,,,0.00,meteohub,2013-01-03 10:38:00,
2013-01-03 05:44:00,64.8,64.2,30.06,East,84,0.0,2.0,98,0.00,,,0.00,meteohub,2013-01-03 10:44:00,
2013-01-03 05:49:00,64.8,64.2,30.06,East,84,0.0,0.0,98,0.00,,,0.00,meteohub,2013-01-03 10:49:00,
2013-01-03 05:54:00,64.8,64.2,30.06,East,84,0.0,0.0,98,0.00,,,0.00,meteohub,2013-01-03 10:54:00,
2013-01-03 06:00:00,64.8,64.2,30.06,East,84,0.0,0.0,98,0.00,,,0.00,meteohub,2013-01-03 11:00:00,
2013-01-03 06:05:00,64.8,64.2,30.06,East,84,0.0,0.0,98,0.00,,,0.00,meteohub,2013-01-03 11:05:00,
2013-01-03 06:10:00,64.6,64.0,30.07,East,84,1.0,2.0,98,0.00,,,0.00,meteohub,2013-01-03 11:10:00,
2013-01-03 06:16:00,64.2,63.3,30.07,East,84,0.0,2.0,97,0.00,,,0.00,meteohub,2013-01-03 11:16:00,
2013-01-03 06:21:00,64.0,63.5,30.07,East,84,0.0,3.0,98,0.00,,,0.00,meteohub,2013-01-03 11:21:00,
2013-01-03 06:26:00,63.9,63.3,30.07,East,84,0.0,5.0,98,0.00,,,0.00,meteohub,2013-01-03 11:26:00,
2013-01-03 06:31:00,63.9,63.0,30.07,East,84,0.0,5.0,97,0.00,,,0.00,meteohub,2013-01-03 11:31:00,
2013-01-03 06:36:00,63.9,63.3,30.07,East,84,1.0,3.0,98,0.00,,,0.00,meteohub,2013-01-03 11:36:00,
2013-01-03 06:41:00,63.7,63.1,30.07,East,84,2.0,5.0,98,0.00,,,0.00,meteohub,2013-01-03 11:41:00,
2013-01-03 06:46:00,63.5,63.0,30.08,East,84,2.0,5.0,98,0.00,,,0.00,meteohub,2013-01-03 11:46:00,
2013-01-03 06:52:00,63.5,63.0,30.08,East,84,0.0,5.0,98,0.00,,,0.00,meteohub,2013-01-03 11:52:00,
2013-01-03 06:57:00,63.7,63.1,30.08,East,84,0.0,5.0,98,0.00,,,0.00,meteohub,2013-01-03 11:57:00,
2013-01-03 07:02:00,63.7,63.1,30.08,East,84,1.0,5.0,98,0.00,,,0.00,meteohub,2013-01-03 12:02:00,
2013-01-03 07:07:00,63.5,63.0,30.08,East,84,2.0,5.0,98,0.00,,,0.00,meteohub,2013-01-03 12:07:00,
2013-01-03 07:12:00,63.5,63.0,30.08,East,84,3.0,6.0,98,0.00,,,0.00,meteohub,2013-01-03 12:12:00,
2013-01-03 07:17:00,63.3,62.8,30.08,East,84,3.0,7.0,98,0.00,,,0.00,meteohub,2013-01-03 12:17:00,
2013-01-03 07:22:00,63.3,62.8,30.08,East,86,5.0,8.0,98,0.00,,,0.00,meteohub,2013-01-03 12:22:00,
2013-01-03 07:27:00,63.3,62.8,30.08,East,86,6.0,9.0,98,0.00,,,0.00,meteohub,2013-01-03 12:27:00,
2013-01-03 07:32:00,63.5,63.0,30.08,East,86,6.0,9.0,98,0.00,,,0.00,meteohub,2013-01-03 12:32:00,
2013-01-03 07:37:00,63.7,63.1,30.09,East,86,2.0,9.0,98,0.00,,,0.00,meteohub,2013-01-03 12:37:00,
2013-01-03 07:42:00,63.7,63.1,30.09,East,86,0.0,8.0,98,0.00,,,0.00,meteohub,2013-01-03 12:42:00,
2013-01-03 07:47:00,63.7,63.1,30.09,East,86,0.0,8.0,98,0.00,,,0.00,meteohub,2013-01-03 12:47:00,
2013-01-03 07:52:00,63.7,63.1,30.09,East,86,1.0,6.0,98,0.00,,,0.00,meteohub,2013-01-03 12:52:00,
2013-01-03 07:57:00,63.9,63.3,30.09,East,86,0.0,3.0,98,0.00,,,0.00,meteohub,2013-01-03 12:57:00,
2013-01-03 08:02:00,63.9,63.3,30.09,East,86,0.0,2.0,98,0.00,,,0.00,meteohub,2013-01-03 13:02:00,
2013-01-03 08:07:00,63.7,63.1,30.09,East,86,2.0,3.0,98,0.00,,,0.00,meteohub,2013-01-03 13:07:00,
2013-01-03 08:12:00,63.9,63.3,30.09,East,86,0.0,5.0,98,0.00,,,0.00,meteohub,2013-01-03 13:12:00,
2013-01-03 08:17:00,63.9,63.3,30.09,East,86,1.0,5.0,98,0.00,,,0.00,meteohub,2013-01-03 13:17:00,
2013-01-03 08:22:00,63.7,63.1,30.10,East,86,1.0,5.0,98,0.00,,,0.00,meteohub,2013-01-03 13:22:00,
2013-01-03 08:27:00,63.7,63.1,30.10,East,86,1.0,6.0,98,0.00,,,0.00,meteohub,2013-01-03 13:27:00,
2013-01-03 08:32:00,63.9,63.3,30.10,East,86,3.0,6.0,98,0.00,,,0.00,meteohub,2013-01-03 13:32:00,
2013-01-03 08:37:00,63.9,63.3,30.09,East,86,2.0,6.0,98,0.00,,,0.00,meteohub,2013-01-03 13:37:00,
2013-01-03 08:42:00,64.0,63.5,30.09,East,86,3.0,6.0,98,0.00,,,0.00,meteohub,2013-01-03 13:42:00,
2013-01-03 08:47:00,64.0,63.5,30.09,East,84,5.0,6.0,98,0.00,,,0.00,meteohub,2013-01-03 13:47:00,
2013-01-03 08:52:00,64.0,63.5,30.09,East,84,0.0,6.0,98,0.00,,,0.00,meteohub,2013-01-03 13:52:00,
2013-01-03 08:57:00,64.2,63.7,30.10,East,84,2.0,6.0,98,0.00,,,0.00,meteohub,2013-01-03 13:57:00,
2013-01-03 09:02:00,64.2,63.7,30.10,East,84,2.0,6.0,98,0.00,,,0.00,meteohub,2013-01-03 14:02:00,
2013-01-03 09:07:00,64.2,63.7,30.10,East,84,0.0,6.0,98,0.00,,,0.00,meteohub,2013-01-03 14:07:00,
2013-01-03 09:12:00,64.2,63.7,30.11,East,84,1.0,6.0,98,0.00,,,0.00,meteohub,2013-01-03 14:12:00,
2013-01-03 09:17:00,64.2,63.7,30.10,East,84,0.0,6.0,98,0.00,,,0.00,meteohub,2013-01-03 14:17:00,
2013-01-03 09:23:00,64.0,63.5,30.10,East,84,1.0,6.0,98,0.00,,,0.00,meteohub,2013-01-03 14:23:00,
2013-01-03 09:28:00,64.2,63.7,30.11,East,84,0.0,5.0,98,0.00,,,0.00,meteohub,2013-01-03 14:28:00,
2013-01-03 09:33:00,64.6,64.0,30.11,East,84,0.0,5.0,98,0.00,,,0.00,meteohub,2013-01-03 14:33:00,
2013-01-03 09:38:00,64.6,64.0,30.11,East,84,3.0,3.0,98,0.00,,,0.00,meteohub,2013-01-03 14:38:00,
2013-01-03 09:44:00,64.8,64.2,30.11,East,84,0.0,3.0,98,0.00,,,0.00,meteohub,2013-01-03 14:44:00,
2013-01-03 09:49:00,64.9,64.4,30.11,East,84,0.0,3.0,98,0.00,,,0.00,meteohub,2013-01-03 14:49:00,
2013-01-03 09:54:00,65.3,64.8,30.12,East,84,1.0,3.0,98,0.00,,,0.00,meteohub,2013-01-03 14:54:00,
2013-01-03 09:59:00,65.5,64.9,30.11,East,84,2.0,2.0,98,0.00,,,0.00,meteohub,2013-01-03 14:59:00,
2013-01-03 10:04:00,65.7,65.1,30.11,East,84,3.0,3.0,98,0.00,,,0.00,meteohub,2013-01-03 15:04:00,
2013-01-03 10:09:00,65.8,65.3,30.11,East,84,0.0,3.0,98,0.00,,,0.00,meteohub,2013-01-03 15:09:00,
2013-01-03 10:15:00,65.8,65.3,30.11,East,84,0.0,3.0,98,0.00,,,0.00,meteohub,2013-01-03 15:15:00,
2013-01-03 10:20:00,66.2,65.7,30.11,East,84,0.0,3.0,98,0.00,,,0.00,meteohub,2013-01-03 15:20:00,
2013-01-03 10:25:00,66.4,65.8,30.11,East,84,1.0,5.0,98,0.00,,,0.00,meteohub,2013-01-03 15:25:00,
2013-01-03 10:30:00,66.4,65.8,30.11,East,84,0.0,5.0,98,0.00,,,0.00,meteohub,2013-01-03 15:30:00,
2013-01-03 10:35:00,66.4,65.8,30.11,East,84,1.0,5.0,98,0.00,,,0.00,meteohub,2013-01-03 15:35:00,
2013-01-03 10:40:00,66.0,65.5,30.11,East,84,2.0,5.0,98,0.00,,,0.00,meteohub,2013-01-03 15:40:00,
2013-01-03 10:45:00,65.8,65.3,30.11,East,84,3.0,7.0,98,0.00,,,0.00,meteohub,2013-01-03 15:45:00,
2013-01-03 10:50:00,65.8,65.3,30.11,East,84,6.0,7.0,98,0.00,,,0.00,meteohub,2013-01-03 15:50:00,
2013-01-03 10:55:00,65.8,65.3,30.12,East,84,1.0,7.0,98,0.00,,,0.00,meteohub,2013-01-03 15:55:00,
2013-01-03 11:01:00,66.0,65.5,30.11,East,84,0.0,6.0,98,0.00,,,0.00,meteohub,2013-01-03 16:01:00,
2013-01-03 11:06:00,66.0,65.5,30.11,East,84,1.0,6.0,98,0.00,,,0.00,meteohub,2013-01-03 16:06:00,
2013-01-03 11:11:00,66.0,65.5,30.11,East,84,0.0,6.0,98,0.00,,,0.00,meteohub,2013-01-03 16:11:00,
2013-01-03 11:16:00,66.0,65.5,30.11,East,84,0.0,5.0,98,0.00,,,0.00,meteohub,2013-01-03 16:16:00,
2013-01-03 11:21:00,66.0,65.5,30.10,East,84,0.0,5.0,98,0.00,,,0.00,meteohub,2013-01-03 16:21:00,
2013-01-03 11:26:00,66.0,65.5,30.10,East,84,0.0,5.0,98,0.00,,,0.00,meteohub,2013-01-03 16:26:00,
2013-01-03 11:31:00,66.0,65.5,30.10,East,84,0.0,5.0,98,0.00,,,0.00,meteohub,2013-01-03 16:31:00,
2013-01-03 11:36:00,66.0,65.5,30.10,East,84,0.0,5.0,98,0.00,,,0.00,meteohub,2013-01-03 16:36:00,
2013-01-03 11:41:00,66.2,65.7,30.10,East,84,0.0,5.0,98,0.00,,,0.00,meteohub,2013-01-03 16:41:00,
2013-01-03 11:46:00,66.4,65.8,30.09,East,84,0.0,3.0,98,0.00,,,0.00,meteohub,2013-01-03 16:46:00,
2013-01-03 11:52:00,66.6,66.0,30.09,East,84,3.0,3.0,98,0.00,,,0.00,meteohub,2013-01-03 16:52:00,
2013-01-03 11:57:00,66.6,66.0,30.09,East,84,0.0,5.0,98,0.00,,,0.00,meteohub,2013-01-03 16:57:00,
2013-01-03 12:02:00,66.6,66.0,30.09,East,83,0.0,5.0,98,0.00,,,0.00,meteohub,2013-01-03 17:02:00,
2013-01-03 12:07:00,66.6,66.0,30.09,East,84,1.0,5.0,98,0.00,,,0.00,meteohub,2013-01-03 17:07:00,
2013-01-03 12:12:00,66.6,66.0,30.09,East,84,0.0,3.0,98,0.00,,,0.00,meteohub,2013-01-03 17:12:00,
2013-01-03 12:17:00,66.9,66.4,30.08,East,84,0.0,3.0,98,0.00,,,0.00,meteohub,2013-01-03 17:17:00,
2013-01-03 12:22:00,67.6,67.1,30.07,East,83,2.0,3.0,98,0.00,,,0.00,meteohub,2013-01-03 17:22:00,
2013-01-03 12:27:00,67.8,66.9,30.07,East,84,5.0,5.0,97,0.00,,,0.00,meteohub,2013-01-03 17:27:00,
2013-01-03 12:32:00,68.2,66.9,30.06,East,84,0.0,5.0,96,0.00,,,0.00,meteohub,2013-01-03 17:32:00,
2013-01-03 12:37:00,68.5,67.3,30.07,East,84,0.0,5.0,96,0.00,,,0.00,meteohub,2013-01-03 17:37:00,
2013-01-03 12:42:00,69.1,67.8,30.07,East,84,0.0,5.0,96,0.00,,,0.00,meteohub,2013-01-03 17:42:00,
2013-01-03 12:47:00,69.3,67.8,30.06,East,84,0.0,2.0,95,0.00,,,0.00,meteohub,2013-01-03 17:47:00,
2013-01-03 12:52:00,69.6,68.2,30.06,East,84,0.0,2.0,95,0.00,,,0.00,meteohub,2013-01-03 17:52:00,
2013-01-03 12:57:00,70.2,68.4,30.06,East,84,0.0,2.0,94,0.00,,,0.00,meteohub,2013-01-03 17:57:00,
2013-01-03 13:02:00,70.3,68.2,30.06,East,84,0.0,2.0,93,0.00,,,0.00,meteohub,2013-01-03 18:02:00,
2013-01-03 13:07:00,70.5,67.8,30.06,East,84,2.0,2.0,91,0.00,,,0.00,meteohub,2013-01-03 18:07:00,
2013-01-03 13:12:00,71.1,68.0,30.06,East,84,1.0,5.0,90,0.00,,,0.00,meteohub,2013-01-03 18:12:00,
2013-01-03 13:17:00,71.6,68.2,30.06,East,84,1.0,5.0,89,0.00,,,0.00,meteohub,2013-01-03 18:17:00,
2013-01-03 13:22:00,72.0,68.2,30.06,East,84,0.0,3.0,88,0.00,,,0.00,meteohub,2013-01-03 18:22:00,
2013-01-03 13:27:00,72.1,68.0,30.06,East,84,1.0,2.0,87,0.00,,,0.00,meteohub,2013-01-03 18:27:00,
2013-01-03 13:32:00,72.1,67.6,30.06,East,84,0.0,2.0,86,0.00,,,0.00,meteohub,2013-01-03 18:32:00,
2013-01-03 13:37:00,72.3,67.6,30.06,East,84,2.0,2.0,85,0.00,,,0.00,meteohub,2013-01-03 18:37:00,
2013-01-03 13:42:00,72.1,67.5,30.05,East,83,0.0,3.0,85,0.00,,,0.00,meteohub,2013-01-03 18:42:00,
2013-01-03 13:47:00,72.0,67.3,30.05,East,84,0.0,3.0,85,0.00,,,0.00,meteohub,2013-01-03 18:47:00,
2013-01-03 13:52:00,72.0,67.3,30.05,East,84,0.0,3.0,85,0.00,,,0.00,meteohub,2013-01-03 18:52:00,
2013-01-03 13:57:00,71.8,66.7,30.05,East,84,0.0,1.0,84,0.00,,,0.00,meteohub,2013-01-03 18:57:00,
2013-01-03 14:02:00,71.4,66.4,30.05,East,84,1.0,1.0,84,0.00,,,0.00,meteohub,2013-01-03 19:02:00,
2013-01-03 14:07:00,71.2,66.6,30.05,East,83,0.0,1.0,85,0.00,,,0.00,meteohub,2013-01-03 19:07:00,
2013-01-03 14:12:00,71.2,66.6,30.05,East,84,1.0,1.0,85,0.00,,,0.00,meteohub,2013-01-03 19:12:00,
2013-01-03 14:17:00,71.2,66.6,30.04,East,84,0.0,1.0,85,0.00,,,0.00,meteohub,2013-01-03 19:17:00,
2013-01-03 15:00:00,67.8,64.8,30.05,NW,316,5.0,7.0,90,0.00,,,0.00,meteohub,2013-01-03 20:00:00,
2013-01-03 15:05:00,67.6,64.6,30.04,NW,322,4.0,10.0,90,0.00,,,0.00,meteohub,2013-01-03 20:05:00,
2013-01-03 15:10:00,67.5,64.4,30.04,NNW,328,1.0,10.0,90,0.00,,,0.00,meteohub,2013-01-03 20:10:00,
2013-01-03 15:15:00,67.5,64.4,30.04,NNW,333,4.0,9.0,90,0.00,,,0.00,meteohub,2013-01-03 20:15:00,
2013-01-03 15:20:00,67.3,64.2,30.04,NW,321,3.0,8.0,90,0.00,,,0.00,meteohub,2013-01-03 20:20:00,
2013-01-03 15:25:00,67.3,64.6,30.04,NW,314,4.0,7.0,91,0.00,,,0.00,meteohub,2013-01-03 20:25:00,
2013-01-03 15:30:00,67.1,64.4,30.05,NW,313,0.0,7.0,91,0.00,,,0.00,meteohub,2013-01-03 20:30:00,
2013-01-03 15:35:00,66.9,63.9,30.04,NW,312,3.0,8.0,90,0.00,,,0.00,meteohub,2013-01-03 20:35:00,
2013-01-03 15:40:00,66.7,64.0,30.04,NW,309,4.0,8.0,91,0.00,,,0.00,meteohub,2013-01-03 20:40:00,
2013-01-03 15:46:00,66.6,63.5,30.05,NW,314,2.0,8.0,90,0.00,,,0.00,meteohub,2013-01-03 20:46:00,
2013-01-03 15:51:00,66.4,63.3,30.05,NW,304,6.0,8.0,90,0.00,,,0.00,meteohub,2013-01-03 20:51:00,
2013-01-03 15:56:00,65.8,63.1,30.06,WNW,301,2.0,8.0,91,0.00,,,0.00,meteohub,2013-01-03 20:56:00,
2013-01-03 16:01:00,65.7,63.3,30.07,NW,323,3.0,9.0,92,0.00,,,0.00,meteohub,2013-01-03 21:01:00,
2013-01-03 16:06:00,65.3,63.0,30.07,NW,321,3.0,9.0,92,0.00,,,0.00,meteohub,2013-01-03 21:06:00,
2013-01-03 16:11:00,65.1,63.0,30.07,NW,321,4.0,10.0,93,0.00,,,0.00,meteohub,2013-01-03 21:11:00,
2013-01-03 16:16:00,64.9,62.8,30.07,NW,321,1.0,10.0,93,0.00,,,0.00,meteohub,2013-01-03 21:16:00,
2013-01-03 16:21:00,64.9,63.1,30.08,NW,321,0.0,10.0,94,0.00,,,0.00,meteohub,2013-01-03 21:21:00,
2013-01-03 16:26:00,64.8,63.0,30.08,NW,321,1.0,6.0,94,0.00,,,0.00,meteohub,2013-01-03 21:26:00,
2013-01-03 16:31:00,64.6,62.8,30.08,NW,321,0.0,4.0,94,0.00,,,0.00,meteohub,2013-01-03 21:31:00,
2013-01-03 16:36:00,64.6,62.8,30.08,NW,321,2.0,4.0,94,0.00,,,0.00,meteohub,2013-01-03 21:36:00,
2013-01-03 16:42:00,64.4,63.0,30.08,NW,321,1.0,4.0,95,0.00,,,0.00,meteohub,2013-01-03 21:42:00,
2013-01-03 16:47:00,64.2,62.8,30.08,NW,321,1.0,5.0,95,0.00,,,0.00,meteohub,2013-01-03 21:47:00,
2013-01-03 16:52:00,64.2,62.8,30.08,NW,321,0.0,5.0,95,0.00,,,0.00,meteohub,2013-01-03 21:52:00,
2013-01-03 16:57:00,64.2,62.8,30.08,NW,321,0.0,5.0,95,0.00,,,0.00,meteohub,2013-01-03 21:57:00,
2013-01-03 17:02:00,64.0,62.6,30.08,NW,321,4.0,5.0,95,0.00,,,0.00,meteohub,2013-01-03 22:02:00,
2013-01-03 17:07:00,63.9,62.4,30.09,NW,321,1.0,6.0,95,0.00,,,0.00,meteohub,2013-01-03 22:07:00,
2013-01-03 17:13:00,63.9,62.4,30.09,NW,321,2.0,6.0,95,0.00,,,0.00,meteohub,2013-01-03 22:13:00,
2013-01-03 17:18:00,63.9,62.8,30.09,NW,321,0.0,6.0,96,0.00,,,0.00,meteohub,2013-01-03 22:18:00,
2013-01-03 17:23:00,63.9,62.8,30.09,NW,321,0.0,4.0,96,0.00,,,0.00,meteohub,2013-01-03 22:23:00,
2013-01-03 17:28:00,64.0,63.0,30.09,NW,321,0.0,4.0,96,0.00,,,0.00,meteohub,2013-01-03 22:28:00,
2013-01-03 17:33:00,64.0,63.0,30.09,NW,321,1.0,4.0,96,0.00,,,0.00,meteohub,2013-01-03 22:33:00,
2013-01-03 17:38:00,63.9,62.8,30.09,NW,321,0.0,4.0,96,0.00,,,0.00,meteohub,2013-01-03 22:38:00,
2013-01-03 17:43:00,63.9,62.8,30.09,NW,321,0.0,3.0,96,0.00,,,0.00,meteohub,2013-01-03 22:43:00,
2013-01-03 17:48:00,64.0,63.0,30.09,NW,321,0.0,2.0,96,0.00,,,0.00,meteohub,2013-01-03 22:48:00,
2013-01-03 17:53:00,64.0,63.0,30.09,NW,321,0.0,2.0,96,0.00,,,0.00,meteohub,2013-01-03 22:53:00,
2013-01-03 17:59:00,64.0,63.0,30.09,NW,321,2.0,3.0,96,0.00,,,0.00,meteohub,2013-01-03 22:59:00,
2013-01-03 18:04:00,64.0,63.0,30.10,NW,321,1.0,3.0,96,0.00,,,0.00,meteohub,2013-01-03 23:04:00,
2013-01-03 18:09:00,64.0,63.0,30.11,NW,321,1.0,3.0,96,0.00,,,0.00,meteohub,2013-01-03 23:09:00,
2013-01-03 18:14:00,64.0,63.0,30.11,NW,321,0.0,3.0,96,0.00,,,0.00,meteohub,2013-01-03 23:14:00,
2013-01-03 18:19:00,64.0,63.0,30.11,NNW,342,0.0,5.0,96,0.00,,,0.00,meteohub,2013-01-03 23:19:00,
2013-01-03 18:24:00,63.9,62.8,30.11,NNE,25,3.0,5.0,96,0.00,,,0.00,meteohub,2013-01-03 23:24:00,
2013-01-03 18:29:00,63.9,62.8,30.11,NE,39,4.0,7.0,96,0.00,,,0.00,meteohub,2013-01-03 23:29:00,
2013-01-03 18:34:00,63.7,62.6,30.12,NNE,32,0.0,9.0,96,0.00,,,0.00,meteohub,2013-01-03 23:34:00,
2013-01-03 18:39:00,63.5,62.4,30.12,NNW,347,0.0,9.0,96,0.00,,,0.00,meteohub,2013-01-03 23:39:00,
2013-01-03 18:45:00,63.1,62.1,30.12,North,355,1.0,9.0,96,0.00,,,0.00,meteohub,2013-01-03 23:45:00,
2013-01-03 18:50:00,62.4,61.3,30.13,NW,324,3.0,9.0,96,0.00,,,0.00,meteohub,2013-01-03 23:50:00,
2013-01-03 18:55:00,62.2,61.2,30.13,NNE,17,4.0,7.0,96,0.00,,,0.00,meteohub,2013-01-03 23:55:00,
2013-01-03 19:00:00,62.1,61.0,30.13,NNW,327,3.0,8.0,96,0.00,,,0.00,meteohub,2013-01-04 00:00:00,
2013-01-03 19:05:00,61.9,60.8,30.13,NNE,13,1.0,10.0,96,0.00,,,0.00,meteohub,2013-01-04 00:05:00,
2013-01-03 19:10:00,61.5,60.4,30.13,NNW,342,0.0,14.0,96,0.00,,,0.00,meteohub,2013-01-04 00:10:00,
2013-01-03 19:15:00,61.5,60.4,30.14,NNE,13,3.0,14.0,96,0.00,,,0.00,meteohub,2013-01-04 00:15:00,
2013-01-03 19:20:00,61.3,60.3,30.14,NE,34,2.0,14.0,96,0.00,,,0.00,meteohub,2013-01-04 00:20:00,
2013-01-03 19:25:00,61.2,60.1,30.14,NNE,32,5.0,11.0,96,0.00,,,0.00,meteohub,2013-01-04 00:25:00,
2013-01-03 19:30:00,61.0,59.9,30.14,NNE,29,1.0,11.0,96,0.00,,,0.00,meteohub,2013-01-04 00:30:00,
2013-01-03 19:35:00,60.4,59.4,30.14,NNE,28,3.0,11.0,96,0.00,,,0.00,meteohub,2013-01-04 00:35:00,
2013-01-03 19:40:00,60.3,58.8,30.14,NNE,19,4.0,12.0,95,0.00,,,0.00,meteohub,2013-01-04 00:40:00,
2013-01-03 19:46:00,60.1,59.0,30.14,North,350,7.0,14.0,96,0.00,,,0.00,meteohub,2013-01-04 00:46:00,
2013-01-03 19:51:00,60.1,59.0,30.15,North,11,6.0,14.0,96,0.00,,,0.00,meteohub,2013-01-04 00:51:00,
2013-01-03 19:56:00,60.1,59.0,30.15,NE,53,4.0,14.0,96,0.00,,,0.00,meteohub,2013-01-04 00:56:00,
2013-01-03 20:01:00,60.1,59.0,30.15,NNE,24,3.0,11.0,96,0.00,,,0.00,meteohub,2013-01-04 01:01:00,
2013-01-03 20:06:00,60.1,59.0,30.15,NE,49,6.0,10.0,96,0.00,,,0.00,meteohub,2013-01-04 01:06:00,
2013-01-03 20:11:00,60.1,59.0,30.16,NE,44,3.0,10.0,96,0.00,,,0.00,meteohub,2013-01-04 01:11:00,
2013-01-03 20:16:00,59.9,58.8,30.16,NE,46,4.0,14.0,96,0.00,,,0.00,meteohub,2013-01-04 01:16:00,
2013-01-03 20:21:00,59.7,58.6,30.16,NNE,24,3.0,14.0,96,0.00,,,0.00,meteohub,2013-01-04 01:21:00,
2013-01-03 20:26:00,59.4,58.3,30.15,NNE,16,1.0,14.0,96,0.00,,,0.00,meteohub,2013-01-04 01:26:00,
2013-01-03 20:32:00,59.2,58.1,30.15,NNW,340,5.0,11.0,96,0.00,,,0.00,meteohub,2013-01-04 01:32:00,
2013-01-03 20:37:00,59.2,58.1,30.16,NE,41,1.0,11.0,96,0.00,,,0.00,meteohub,2013-01-04 01:37:00,
2013-01-03 20:42:00,59.2,58.1,30.16,NNE,26,5.0,14.0,96,0.00,,,0.00,meteohub,2013-01-04 01:42:00,
2013-01-03 20:47:00,59.2,58.1,30.16,North,355,6.0,14.0,96,0.00,,,0.00,meteohub,2013-01-04 01:47:00,
2013-01-03 20:52:00,59.4,58.3,30.16,NNE,32,3.0,12.0,96,0.00,,,0.00,meteohub,2013-01-04 01:52:00,
2013-01-03 20:57:00,59.4,58.3,30.16,NE,40,1.0,12.0,96,0.00,,,0.00,meteohub,2013-01-04 01:57:00,
2013-01-03 21:03:00,59.2,58.1,30.16,NE,52,0.0,12.0,96,0.00,,,0.00,meteohub,2013-01-04 02:03:00,
2013-01-03 21:08:00,59.2,58.1,30.16,NE,48,4.0,10.0,96,0.00,,,0.00,meteohub,2013-01-04 02:08:00,
2013-01-03 21:13:00,59.4,58.3,30.16,NE,44,6.0,10.0,96,0.00,,,0.00,meteohub,2013-01-04 02:13:00,
2013-01-03 21:18:00,59.4,58.3,30.17,ENE,57,10.0,11.0,96,0.00,,,0.00,meteohub,2013-01-04 02:18:00,
2013-01-03 21:23:00,59.4,58.3,30.16,NE,47,9.0,13.0,96,0.00,,,0.00,meteohub,2013-01-04 02:23:00,
2013-01-03 21:28:00,59.5,58.5,30.16,NE,51,4.0,13.0,96,0.00,,,0.00,meteohub,2013-01-04 02:28:00,
2013-01-03 21:33:00,59.5,58.5,30.17,NE,42,4.0,13.0,96,0.00,,,0.00,meteohub,2013-01-04 02:33:00,
2013-01-03 21:38:00,59.5,58.5,30.17,ENE,62,1.0,10.0,96,0.00,,,0.00,meteohub,2013-01-04 02:38:00,
2013-01-03 21:43:00,59.5,58.5,30.17,NE,40,4.0,10.0,96,0.00,,,0.00,meteohub,2013-01-04 02:43:00,
2013-01-03 21:48:00,59.5,58.5,30.17,NE,38,0.0,9.0,96,0.00,,,0.00,meteohub,2013-01-04 02:48:00,
2013-01-03 21:54:00,59.7,58.3,30.17,NE,38,1.0,9.0,95,0.00,,,0.00,meteohub,2013-01-04 02:54:00,
2013-01-03 21:59:00,59.5,58.1,30.18,NE,38,0.0,9.0,95,0.00,,,0.00,meteohub,2013-01-04 02:59:00,
2013-01-03 22:04:00,59.5,58.1,30.18,NNE,18,1.0,7.0,95,0.00,,,0.00,meteohub,2013-01-04 03:04:00,
2013-01-03 22:09:00,59.7,58.6,30.18,NNE,18,3.0,10.0,96,0.00,,,0.00,meteohub,2013-01-04 03:09:00,
2013-01-03 22:14:00,59.5,58.1,30.18,NNE,30,0.0,10.0,95,0.00,,,0.00,meteohub,2013-01-04 03:14:00,
2013-01-03 22:19:00,59.5,58.5,30.17,NNE,24,3.0,10.0,96,0.00,,,0.00,meteohub,2013-01-04 03:19:00,
2013-01-03 22:24:00,59.5,58.5,30.17,NE,46,3.0,8.0,96,0.00,,,0.00,meteohub,2013-01-04 03:24:00,
2013-01-03 22:29:00,59.7,58.6,30.17,NE,47,1.0,8.0,96,0.00,,,0.00,meteohub,2013-01-04 03:29:00,
2013-01-03 22:34:00,59.5,58.5,30.18,NE,35,0.0,8.0,96,0.00,,,0.00,meteohub,2013-01-04 03:34:00,
2013-01-03 22:39:00,59.5,58.5,30.18,NNE,33,2.0,8.0,96,0.00,,,0.00,meteohub,2013-01-04 03:39:00,
2013-01-03 22:45:00,59.5,58.5,30.18,NNE,33,0.0,8.0,96,0.00,,,0.00,meteohub,2013-01-04 03:45:00,
2013-01-03 22:50:00,59.5,58.5,30.18,NNE,28,2.0,8.0,96,0.00,,,0.00,meteohub,2013-01-04 03:50:00,
2013-01-03 22:55:00,59.5,58.5,30.18,NNE,28,1.0,11.0,96,0.00,,,0.00,meteohub,2013-01-04 03:55:00,
2013-01-03 23:00:00,59.5,58.5,30.18,NE,34,0.0,11.0,96,0.00,,,0.00,meteohub,2013-01-04 04:00:00,
2013-01-03 23:05:00,59.5,58.5,30.18,NNE,32,2.0,8.0,96,0.00,,,0.00,meteohub,2013-01-04 04:05:00,
2013-01-03 23:10:00,59.5,58.5,30.17,NNE,32,2.0,8.0,96,0.00,,,0.00,meteohub,2013-01-04 04:10:00,
2013-01-03 23:15:00,59.5,58.5,30.17,NE,34,2.0,7.0,96,0.00,,,0.00,meteohub,2013-01-04 04:15:00,
2013-01-03 23:20:00,59.5,58.5,30.17,NE,34,0.0,7.0,96,0.00,,,0.00,meteohub,2013-01-04 04:20:00,
2013-01-03 23:25:00,59.7,58.6,30.17,NE,34,2.0,6.0,96,0.00,,,0.00,meteohub,2013-01-04 04:25:00,
2013-01-03 23:30:00,59.7,58.6,30.17,NE,34,0.0,6.0,96,0.00,,,0.00,meteohub,2013-01-04 04:30:00,
2013-01-03 23:36:00,59.7,58.6,30.17,NE,34,2.0,7.0,96,0.00,,,0.00,meteohub,2013-01-04 04:36:00,
2013-01-03 23:41:00,59.7,58.6,30.17,NE,34,0.0,7.0,96,0.00,,,0.00,meteohub,2013-01-04 04:41:00,
2013-01-03 23:46:00,59.9,58.8,30.18,NE,34,4.0,5.0,96,0.00,,,0.00,meteohub,2013-01-04 04:46:00,
2013-01-03 23:51:00,59.7,58.6,30.18,NE,34,0.0,5.0,96,0.00,,,0.00,meteohub,2013-01-04 04:51:00,
2013-01-03 23:56:00,59.5,58.5,30.17,NNE,24,2.0,5.0,96,0.00,,,0.00,meteohub,2013-01-04 04:56:00,